Time;durP1;ratioP1;P1;durP2;ratioP2;P2;SDS_P1;SDS_P2;PMS_P1;PMS_P2;Temp;Humidity;BMP_temperature;BMP_pressure;BME280_temperature;BME280_humidity;BME280_pressure;Samples;Min_cycle;Max_cycle;Signal;HPM_P1;HPM_P2
2022/10/02 00:02:25;;;;;;;;;;;19.40;92.40;;;;;;4983741;28;19926;-65
2022/10/02 00:04:56;;;;;;;;;;;19.30;92.40;;;;;;5004139;28;20015;-68
2022/10/02 00:07:25;;;;;;;;;;;19.10;92.30;;;;;;4984655;28;20354;-67
2022/10/02 00:09:58;;;;;;;;;;;19.40;92.40;;;;;;5012160;28;19930;-67
2022/10/02 00:12:25;;;;;;;;;;;19.30;92.40;;;;;;5003033;28;20425;-65
2022/10/02 00:14:51;;;;;;;;;;;19.30;92.40;;;;;;5012292;28;20043;-68
2022/10/02 00:17:20;;;;;;;;;;;19.40;92.40;;;;;;5012701;28;20027;-67
2022/10/02 00:19:46;;;;;;;;;;;19.60;92.50;;;;;;4980465;28;19968;-67
2022/10/02 00:22:20;;;;;;;;;;;19.30;92.40;;;;;;4995339;28;19977;-66
2022/10/02 00:24:48;;;;;;;;;;;19.40;92.40;;;;;;5016683;28;19961;-67
2022/10/02 00:27:25;;;;;;;;;;;19.40;92.40;;;;;;5036106;28;19970;-66
2022/10/02 00:29:52;;;;;;;;;;;19.30;92.30;;;;;;5032478;28;19929;-64
2022/10/02 00:32:27;;;;;;;;;;;19.40;92.30;;;;;;5026545;28;19926;-67
2022/10/02 00:35:01;;;;;;;;;;;19.20;92.30;;;;;;5033977;28;19929;-67
2022/10/02 00:37:42;;;;;;;;;;;19.30;91.90;;;;;;5034722;28;19926;-67
2022/10/02 00:40:28;;;;;;;;;;;19.40;92.30;;;;;;5016195;28;19925;-68
2022/10/02 00:43:00;;;;;;;;;;;19.20;92.20;;;;;;5028383;28;19929;-63
2022/10/02 00:45:29;;;;;;;;;;;19.50;92.30;;;;;;5031461;28;19979;-62
2022/10/02 00:48:09;;;;;;;;;;;19.30;92.30;;;;;;5033574;28;19925;-68
2022/10/02 00:50:42;;;;;;;;;;;19.50;92.30;;;;;;5017984;28;19925;-68
2022/10/02 00:53:18;;;;;;;;;;;19.30;92.30;;;;;;5030375;28;19925;-68
2022/10/02 00:55:50;;;;;;;;;;;19.30;92.30;;;;;;5033623;28;19932;-69
2022/10/02 00:58:35;;;;;;;;;;;19.10;91.90;;;;;;5034697;28;19925;-68
2022/10/02 01:01:00;;;;;;;;;;;19.40;92.30;;;;;;5030896;28;20345;-68
2022/10/02 01:03:27;;;;;;;;;;;19.10;92.20;;;;;;5028648;28;19921;-67
2022/10/02 01:05:53;;;;;;;;;;;19.30;92.30;;;;;;5032211;28;20363;-68
2022/10/02 01:08:19;;;;;;;;;;;19.20;92.30;;;;;;5058594;28;19979;-67
2022/10/02 01:10:44;;;;;;;;;;;19.20;92.30;;;;;;5054359;28;19925;-64
2022/10/02 01:13:10;;;;;;;;;;;19.20;92.30;;;;;;5059159;28;19952;-65
2022/10/02 01:15:36;;;;;;;;;;;19.20;92.30;;;;;;5040762;28;19935;-62
2022/10/02 01:18:02;;;;;;;;;;;19.40;92.60;;;;;;5057040;28;19971;-67
2022/10/02 01:20:33;;;;;;;;;;;19.30;92.30;;;;;;5074332;28;19982;-67
2022/10/02 01:23:25;;;;;;;;;;;19.10;92.30;;;;;;5068144;28;19921;-68
2022/10/02 01:25:51;;;;;;;;;;;19.20;92.30;;;;;;5049603;28;20390;-68
2022/10/02 01:28:16;;;;;;;;;;;19.60;92.50;;;;;;5073746;28;19932;-66
2022/10/02 01:30:43;;;;;;;;;;;19.10;92.30;;;;;;5064347;28;19932;-62
2022/10/02 01:33:08;;;;;;;;;;;19.10;92.30;;;;;;5058065;28;19928;-67
2022/10/02 01:35:34;;;;;;;;;;;19.10;92.30;;;;;;5072922;28;20387;-65
2022/10/02 01:38:05;;;;;;;;;;;19.20;92.30;;;;;;5060432;28;19929;-67
2022/10/02 01:40:31;;;;;;;;;;;19.10;92.30;;;;;;5053407;28;19933;-62
2022/10/02 01:43:07;;;;;;;;;;;19.20;92.30;;;;;;5074378;28;20024;-64
2022/10/02 01:45:36;;;;;;;;;;;19.20;92.30;;;;;;5074488;28;19978;-64
2022/10/02 01:48:07;;;;;;;;;;;18.80;92.20;;;;;;5071815;28;20011;-65
2022/10/02 01:50:37;;;;;;;;;;;19.20;92.40;;;;;;5056252;28;19924;-65
2022/10/02 01:53:18;;;;;;;;;;;19.30;92.40;;;;;;5070500;28;20443;-68
2022/10/02 01:56:00;;;;;;;;;;;18.90;92.30;;;;;;5074278;28;19930;-67
2022/10/02 01:58:40;;;;;;;;;;;19.00;92.30;;;;;;5055792;28;19925;-68
2022/10/02 02:01:12;;;;;;;;;;;19.20;92.40;;;;;;5057584;28;20265;-67
2022/10/02 02:03:41;;;;;;;;;;;19.00;92.30;;;;;;5056707;28;19928;-65
2022/10/02 02:06:06;;;;;;;;;;;19.30;92.40;;;;;;5074473;28;19924;-65
2022/10/02 02:08:33;;;;;;;;;;;19.00;92.30;;;;;;5071691;28;19925;-68
2022/10/02 02:11:05;;;;;;;;;;;19.10;92.40;;;;;;5072196;28;19932;-62
2022/10/02 02:13:47;;;;;;;;;;;19.10;92.40;;;;;;5071083;28;19928;-62
2022/10/02 02:16:19;;;;;;;;;;;19.10;92.40;;;;;;5070054;28;20382;-66
2022/10/02 02:18:45;;;;;;;;;;;19.30;92.40;;;;;;5060894;28;19925;-69
2022/10/02 02:21:36;;;;;;;;;;;19.10;92.30;;;;;;5064715;28;19928;-66
2022/10/02 02:24:03;;;;;;;;;;;19.00;92.30;;;;;;5065889;28;20275;-63
2022/10/02 02:26:28;;;;;;;;;;;19.10;92.40;;;;;;5068159;28;19925;-62
2022/10/02 02:28:55;;;;;;;;;;;18.90;92.30;;;;;;5087136;28;19931;-62
2022/10/02 02:31:23;;;;;;;;;;;19.10;92.40;;;;;;5062633;28;19924;-65
2022/10/02 02:33:54;;;;;;;;;;;19.00;92.30;;;;;;5043331;28;19925;-62
2022/10/02 02:36:20;;;;;;;;;;;19.10;92.40;;;;;;5069399;28;19925;-66
2022/10/02 02:38:47;;;;;;;;;;;19.00;92.30;;;;;;5054456;28;20023;-68
2022/10/02 02:41:13;;;;;;;;;;;19.20;92.40;;;;;;5059053;28;19927;-66
2022/10/02 02:43:42;;;;;;;;;;;19.10;92.30;;;;;;5066443;28;20058;-65
2022/10/02 02:46:28;;;;;;;;;;;18.90;92.30;;;;;;5047064;28;20443;-64
2022/10/02 02:48:56;;;;;;;;;;;19.20;92.40;;;;;;5063027;28;19975;-63
2022/10/02 02:51:40;;;;;;;;;;;19.10;92.40;;;;;;5062683;28;19920;-68
2022/10/02 02:54:16;;;;;;;;;;;18.90;92.30;;;;;;5048789;28;19935;-67
2022/10/02 02:56:42;;;;;;;;;;;19.00;92.40;;;;;;5060166;28;20432;-64
2022/10/02 02:59:09;;;;;;;;;;;19.20;92.40;;;;;;5059406;28;19971;-65
2022/10/02 03:01:34;;;;;;;;;;;19.00;92.40;;;;;;5058375;28;20044;-63
2022/10/02 03:04:00;;;;;;;;;;;19.20;92.40;;;;;;5067142;28;19975;-63
2022/10/02 03:06:32;;;;;;;;;;;18.90;92.40;;;;;;5059794;28;20386;-64
2022/10/02 03:08:58;;;;;;;;;;;18.90;92.30;;;;;;5034284;28;20019;-67
2022/10/02 03:11:27;;;;;;;;;;;19.10;92.40;;;;;;5070076;28;20019;-67
2022/10/02 03:14:05;;;;;;;;;;;19.20;92.40;;;;;;5062040;28;19931;-68
2022/10/02 03:16:39;;;;;;;;;;;18.90;92.30;;;;;;5059012;28;20389;-67
2022/10/02 03:19:05;;;;;;;;;;;19.00;92.40;;;;;;5060552;28;20070;-67
2022/10/02 03:21:46;;;;;;;;;;;19.00;92.40;;;;;;5051813;28;20051;-64
2022/10/02 03:24:16;;;;;;;;;;;18.90;92.40;;;;;;5056444;28;19924;-65
2022/10/02 03:26:44;;;;;;;;;;;19.10;92.30;;;;;;5057426;28;19925;-63
2022/10/02 03:29:12;;;;;;;;;;;18.90;92.40;;;;;;5065350;28;19925;-65
2022/10/02 03:31:38;;;;;;;;;;;18.80;92.40;;;;;;5062377;28;20054;-64
2022/10/02 03:34:04;;;;;;;;;;;18.90;92.40;;;;;;5056446;28;20028;-65
2022/10/02 03:36:29;;;;;;;;;;;18.90;92.40;;;;;;5068005;28;20366;-67
2022/10/02 03:38:56;;;;;;;;;;;19.10;92.40;;;;;;5066155;28;20299;-68
2022/10/02 03:41:21;;;;;;;;;;;19.10;92.50;;;;;;5060772;28;19925;-68
2022/10/02 03:43:47;;;;;;;;;;;18.90;92.40;;;;;;5059961;28;20396;-65
2022/10/02 03:46:12;;;;;;;;;;;19.00;92.40;;;;;;5058954;28;19932;-67
2022/10/02 03:48:38;;;;;;;;;;;19.10;92.50;;;;;;5060012;28;19930;-66
2022/10/02 03:51:04;;;;;;;;;;;19.00;92.40;;;;;;5068662;28;19924;-66
2022/10/02 03:53:30;;;;;;;;;;;18.90;92.40;;;;;;5063385;28;19980;-68
2022/10/02 03:55:56;;;;;;;;;;;;;;;;;;5054262;28;19971;-67
2022/10/02 03:58:22;;;;;;;;;;;;;;;;;;5056485;28;19924;-67
2022/10/02 04:00:47;;;;;;;;;;;19.10;92.40;;;;;;5061453;28;20282;-67
2022/10/02 04:03:14;;;;;;;;;;;18.90;92.40;;;;;;5059059;28;19931;-64
2022/10/02 04:05:40;;;;;;;;;;;19.00;92.40;;;;;;5065660;28;20035;-63
2022/10/02 04:08:14;;;;;;;;;;;19.20;92.40;;;;;;5066483;28;19932;-66
2022/10/02 04:10:51;;;;;;;;;;;19.10;92.40;;;;;;5049654;28;19999;-67
2022/10/02 04:13:31;;;;;;;;;;;19.10;92.40;;;;;;5054157;28;21636;-69
2022/10/02 04:16:00;;;;;;;;;;;18.90;92.40;;;;;;5054170;28;20309;-67
2022/10/02 04:18:26;;;;;;;;;;;18.90;92.40;;;;;;5062023;28;20022;-68
2022/10/02 04:20:54;;;;;;;;;;;19.00;92.40;;;;;;5085651;28;19924;-67
2022/10/02 04:23:19;;;;;;;;;;;19.20;92.40;;;;;;5068886;28;19964;-68
2022/10/02 04:25:47;;;;;;;;;;;19.20;92.50;;;;;;5065965;28;20001;-67
2022/10/02 04:28:13;;;;;;;;;;;;;;;;;;5064849;28;19925;-67
2022/10/02 04:30:39;;;;;;;;;;;18.80;92.40;;;;;;5058246;28;19932;-67
2022/10/02 04:33:14;;;;;;;;;;;19.00;92.50;;;;;;5069863;28;19924;-68
2022/10/02 04:35:49;;;;;;;;;;;18.80;92.50;;;;;;5061234;28;19944;-66
2022/10/02 04:38:33;;;;;;;;;;;18.90;92.50;;;;;;5063757;28;19925;-67
2022/10/02 04:40:59;;;;;;;;;;;19.00;92.50;;;;;;5060964;28;19931;-68
2022/10/02 04:43:27;;;;;;;;;;;19.20;92.60;;;;;;5072052;28;20394;-65
2022/10/02 04:46:13;;;;;;;;;;;18.90;92.50;;;;;;5061143;28;19932;-64
2022/10/02 04:48:50;;;;;;;;;;;19.00;92.60;;;;;;5054478;28;19924;-63
2022/10/02 04:51:15;;;;;;;;;;;;;;;;;;5066162;28;19924;-66
2022/10/02 04:54:00;;;;;;;;;;;18.90;92.50;;;;;;5070646;28;19931;-66
2022/10/02 04:56:26;;;;;;;;;;;;;;;;;;5065019;28;19967;-67
2022/10/02 04:59:11;;;;;;;;;;;19.20;92.60;;;;;;5057241;28;19968;-67
2022/10/02 05:01:43;;;;;;;;;;;19.20;92.60;;;;;;5045116;28;20876;-64
2022/10/02 05:04:12;;;;;;;;;;;19.00;92.60;;;;;;5067250;28;19931;-64
2022/10/02 05:06:50;;;;;;;;;;;19.00;92.60;;;;;;5062562;28;19925;-65
2022/10/02 05:09:36;;;;;;;;;;;19.00;92.60;;;;;;5045499;28;20383;-63
2022/10/02 05:12:13;;;;;;;;;;;19.10;92.60;;;;;;5056591;28;19986;-64
2022/10/02 05:15:07;;;;;;;;;;;19.00;92.60;;;;;;5064067;28;19924;-66
2022/10/02 05:17:39;;;;;;;;;;;19.00;92.60;;;;;;5047663;28;20386;-67
2022/10/02 05:20:17;;;;;;;;;;;18.80;92.60;;;;;;5064623;28;19955;-68
2022/10/02 05:22:42;;;;;;;;;;;18.80;92.60;;;;;;5056329;28;20361;-68
2022/10/02 05:25:28;;;;;;;;;;;19.10;92.60;;;;;;5054530;28;19925;-68
2022/10/02 05:28:13;;;;;;;;;;;19.20;92.60;;;;;;5061184;28;19970;-68
2022/10/02 05:31:03;;;;;;;;;;;18.90;92.60;;;;;;5068954;28;20621;-67
2022/10/02 05:33:31;;;;;;;;;;;18.80;92.50;;;;;;4987064;28;19945;-68
2022/10/02 05:35:57;;;;;;;;;;;19.00;92.60;;;;;;4990317;28;19933;-67
2022/10/02 05:38:25;;;;;;;;;;;19.00;92.60;;;;;;4990946;28;19926;-67
2022/10/02 05:40:57;;;;;;;;;;;19.10;92.60;;;;;;4990302;28;19921;-66
2022/10/02 05:43:27;;;;;;;;;;;19.10;92.60;;;;;;4984743;28;19929;-66
2022/10/02 05:45:57;;;;;;;;;;;18.90;92.60;;;;;;4986146;28;19926;-64
2022/10/02 05:48:25;;;;;;;;;;;18.80;92.60;;;;;;4960748;28;19989;-67
2022/10/02 05:50:51;;;;;;;;;;;19.00;92.30;;;;;;4977434;28;19929;-67
2022/10/02 05:53:17;;;;;;;;;;;18.90;92.60;;;;;;4974791;28;19926;-67
2022/10/02 05:55:47;;;;;;;;;;;19.10;92.60;;;;;;4988278;28;20411;-68
2022/10/02 05:58:18;;;;;;;;;;;19.00;92.60;;;;;;4978027;28;20013;-67
2022/10/02 06:01:10;;;;;;;;;;;19.10;92.60;;;;;;4960334;28;19925;-67
2022/10/02 06:03:38;;;;;;;;;;;18.90;92.50;;;;;;4986187;28;20407;-67
2022/10/02 06:06:13;;;;;;;;;;;19.00;92.50;;;;;;4970138;28;19930;-67
2022/10/02 06:08:43;;;;;;;;;;;19.30;92.60;;;;;;4974121;28;19925;-67
2022/10/02 06:11:18;;;;;;;;;;;19.10;92.50;;;;;;5041853;28;20054;-65
2022/10/02 06:13:48;;;;;;;;;;;19.30;92.50;;;;;;5041598;28;19925;-68
2022/10/02 06:16:14;;;;;;;;;;;19.20;92.30;;;;;;5060655;28;19932;-66
2022/10/02 06:18:40;;;;;;;;;;;19.30;92.40;;;;;;5057019;28;19928;-67
2022/10/02 06:21:06;;;;;;;;;;;;;;;;;;5054609;28;19925;-68
2022/10/02 06:23:34;;;;;;;;;;;19.30;92.30;;;;;;5069227;28;19931;-65
2022/10/02 06:26:02;;;;;;;;;;;19.30;92.30;;;;;;5056989;28;19991;-67
2022/10/02 06:28:37;;;;;;;;;;;19.30;92.30;;;;;;5068440;28;19958;-67
2022/10/02 06:31:04;;;;;;;;;;;19.40;92.30;;;;;;5058761;28;20258;-67
2022/10/02 06:33:30;;;;;;;;;;;19.40;92.30;;;;;;5054515;28;20559;-65
2022/10/02 06:36:01;;;;;;;;;;;19.50;92.20;;;;;;5056435;28;19976;-64
2022/10/02 06:38:36;;;;;;;;;;;19.60;92.10;;;;;;5053387;28;19925;-66
2022/10/02 06:41:21;;;;;;;;;;;19.50;92.00;;;;;;5063581;28;19933;-65
2022/10/02 06:43:46;;;;;;;;;;;19.60;91.90;;;;;;5060815;28;19931;-63
2022/10/02 06:46:16;;;;;;;;;;;19.70;91.80;;;;;;5062020;28;19928;-64
2022/10/02 06:48:42;;;;;;;;;;;19.80;91.70;;;;;;5059030;28;19925;-64
2022/10/02 06:51:26;;;;;;;;;;;19.70;91.60;;;;;;5083669;28;20275;-64
2022/10/02 06:53:55;;;;;;;;;;;19.90;91.50;;;;;;5056704;28;19928;-67
2022/10/02 06:56:24;;;;;;;;;;;19.90;91.50;;;;;;5068749;28;19925;-67
2022/10/02 06:58:50;;;;;;;;;;;;;;;;;;5056910;28;20021;-67
2022/10/02 07:01:15;;;;;;;;;;;20.20;91.30;;;;;;5051668;28;19932;-66
2022/10/02 07:03:57;;;;;;;;;;;20.50;91.50;;;;;;5060249;28;20877;-63
2022/10/02 07:06:29;;;;;;;;;;;20.30;91.10;;;;;;5083415;28;19936;-66
2022/10/02 07:09:20;;;;;;;;;;;20.40;91.10;;;;;;5058886;28;19987;-64
2022/10/02 07:11:54;;;;;;;;;;;20.40;90.90;;;;;;5061117;28;19932;-67
2022/10/02 07:14:22;;;;;;;;;;;20.80;90.90;;;;;;5060795;28;19925;-63
2022/10/02 07:16:48;;;;;;;;;;;20.60;90.50;;;;;;5060328;28;19925;-66
2022/10/02 07:19:49;;;;;;;;;;;20.60;90.80;;;;;;5062603;28;19924;-67
2022/10/02 07:22:20;;;;;;;;;;;20.80;90.50;;;;;;5000286;28;19981;-63
2022/10/02 07:24:57;;;;;;;;;;;21.00;90.20;;;;;;5002266;28;19996;-62
2022/10/02 07:27:25;;;;;;;;;;;21.20;90.10;;;;;;4989932;28;19925;-63
2022/10/02 07:29:51;;;;;;;;;;;21.30;90.50;;;;;;4999810;28;20288;-66
2022/10/02 07:32:25;;;;;;;;;;;20.90;90.50;;;;;;5003853;28;19925;-63
2022/10/02 07:35:03;;;;;;;;;;;21.20;90.00;;;;;;5011335;28;19925;-62
2022/10/02 07:37:37;;;;;;;;;;;21.00;90.10;;;;;;4978616;28;19926;-63
2022/10/02 07:40:05;;;;;;;;;;;20.70;90.50;;;;;;5009837;28;19933;-66
2022/10/02 07:42:30;;;;;;;;;;;20.90;90.70;;;;;;5012238;28;19984;-62
2022/10/02 07:45:02;;;;;;;;;;;20.60;90.60;;;;;;5003856;28;20050;-63
2022/10/02 07:47:42;;;;;;;;;;;20.70;90.20;;;;;;5011710;28;19931;-62
2022/10/02 07:50:10;;;;;;;;;;;21.00;91.00;;;;;;4992742;28;19951;-62
2022/10/02 07:52:45;;;;;;;;;;;21.00;90.90;;;;;;4969943;28;19929;-64
2022/10/02 07:55:17;;;;;;;;;;;20.70;90.80;;;;;;4974298;28;19936;-63
2022/10/02 07:57:47;;;;;;;;;;;20.40;90.70;;;;;;5057026;28;19925;-63
2022/10/02 08:00:14;;;;;;;;;;;20.80;90.90;;;;;;5057155;28;19925;-63
2022/10/02 08:02:42;;;;;;;;;;;20.40;90.80;;;;;;5039397;28;20119;-62
2022/10/02 08:05:28;;;;;;;;;;;20.50;90.40;;;;;;5058685;28;19974;-63
2022/10/02 08:07:58;;;;;;;;;;;20.60;90.50;;;;;;5069692;28;20353;-63
2022/10/02 08:10:28;;;;;;;;;;;20.70;91.00;;;;;;5065742;28;19930;-64
2022/10/02 08:12:59;;;;;;;;;;;20.60;91.00;;;;;;5069185;28;20036;-71
2022/10/02 08:15:25;;;;;;;;;;;20.50;91.00;;;;;;5052812;28;19925;-63
2022/10/02 08:17:54;;;;;;;;;;;20.40;91.00;;;;;;5070573;28;19947;-63
2022/10/02 08:20:22;;;;;;;;;;;20.50;90.60;;;;;;5065535;28;19929;-63
2022/10/02 08:22:52;;;;;;;;;;;20.60;91.00;;;;;;5070898;28;20356;-64
2022/10/02 08:25:19;;;;;;;;;;;20.70;90.70;;;;;;5069286;28;19931;-63
2022/10/02 08:27:57;;;;;;;;;;;20.40;91.00;;;;;;5087136;28;20432;-64
2022/10/02 08:30:23;;;;;;;;;;;20.50;91.00;;;;;;5074070;28;19970;-65
2022/10/02 08:32:49;;;;;;;;;;;20.60;90.90;;;;;;5073835;28;19932;-65
2022/10/02 08:35:16;;;;;;;;;;;20.70;90.90;;;;;;5071777;28;20400;-63
2022/10/02 08:37:44;;;;;;;;;;;20.70;91.10;;;;;;5073277;28;19928;-65
2022/10/02 08:40:23;;;;;;;;;;;20.60;90.90;;;;;;5066010;28;19928;-63
2022/10/02 08:43:07;;;;;;;;;;;20.60;90.90;;;;;;5063242;28;19929;-63
2022/10/02 08:45:51;;;;;;;;;;;20.90;90.90;;;;;;5046091;28;19925;-63
2022/10/02 08:48:18;;;;;;;;;;;20.50;90.40;;;;;;5070811;28;19947;-63
2022/10/02 08:50:43;;;;;;;;;;;21.00;90.90;;;;;;5070565;28;20266;-62
2022/10/02 08:53:15;;;;;;;;;;;20.80;90.80;;;;;;5063363;28;20088;-67
2022/10/02 08:55:42;;;;;;;;;;;21.00;90.70;;;;;;5070046;28;20415;-62
2022/10/02 08:58:09;;;;;;;;;;;20.70;90.50;;;;;;5068810;28;20286;-64
2022/10/02 09:00:44;;;;;;;;;;;20.80;90.70;;;;;;5073905;28;19936;-62
2022/10/02 09:03:19;;;;;;;;;;;20.90;90.20;;;;;;5073569;28;20294;-63
2022/10/02 09:05:52;;;;;;;;;;;20.70;90.10;;;;;;5058119;28;19925;-63
2022/10/02 09:08:36;;;;;;;;;;;21.00;90.20;;;;;;5071461;28;20463;-63
2022/10/02 09:11:21;;;;;;;;;;;21.10;90.30;;;;;;5071055;28;19925;-62
2022/10/02 09:14:09;;;;;;;;;;;20.60;90.10;;;;;;5067381;28;19932;-68
2022/10/02 09:16:53;;;;;;;;;;;21.00;90.20;;;;;;5069410;28;20042;-68
2022/10/02 09:19:24;;;;;;;;;;;21.10;90.20;;;;;;5060675;28;19986;-63
2022/10/02 09:21:55;;;;;;;;;;;20.60;90.10;;;;;;5064760;28;19929;-62
2022/10/02 09:24:36;;;;;;;;;;;20.90;90.50;;;;;;5043285;28;20006;-62
2022/10/02 09:27:07;;;;;;;;;;;20.50;90.40;;;;;;5065583;28;19932;-62
2022/10/02 09:29:52;;;;;;;;;;;21.00;90.10;;;;;;5061429;28;19925;-63
2022/10/02 09:32:26;;;;;;;;;;;21.10;90.20;;;;;;5061010;28;19978;-63
2022/10/02 09:34:52;;;;;;;;;;;20.70;90.10;;;;;;5064607;28;20264;-62
2022/10/02 09:37:42;;;;;;;;;;;20.60;90.50;;;;;;5063932;28;19932;-62
2022/10/02 09:40:14;;;;;;;;;;;20.70;90.20;;;;;;4989685;28;19996;-67
2022/10/02 09:42:58;;;;;;;;;;;20.80;90.90;;;;;;4989079;28;19926;-67
2022/10/02 09:45:27;;;;;;;;;;;20.90;90.40;;;;;;4992762;28;19930;-67
2022/10/02 09:48:00;;;;;;;;;;;20.90;90.40;;;;;;4990890;28;19922;-67
2022/10/02 09:50:37;;;;;;;;;;;20.90;90.40;;;;;;4991647;28;20016;-62
2022/10/02 09:53:18;;;;;;;;;;;20.80;90.40;;;;;;4992058;28;19930;-62
2022/10/02 09:55:44;;;;;;;;;;;20.70;90.40;;;;;;4974898;28;20435;-65
2022/10/02 09:58:28;;;;;;;;;;;20.80;91.00;;;;;;4992044;28;20020;-63
2022/10/02 10:01:00;;;;;;;;;;;20.60;90.80;;;;;;4991870;28;19933;-63
2022/10/02 10:03:46;;;;;;;;;;;20.70;90.50;;;;;;4992100;28;20378;-62
2022/10/02 10:06:14;;;;;;;;;;;20.70;90.70;;;;;;4990289;28;19926;-62
2022/10/02 10:08:44;;;;;;;;;;;20.90;90.50;;;;;;4975459;28;20005;-62
2022/10/02 10:11:28;;;;;;;;;;;21.00;90.50;;;;;;4991241;28;20008;-63
2022/10/02 10:14:18;;;;;;;;;;;20.80;90.90;;;;;;4990484;28;19930;-63
2022/10/02 10:16:47;;;;;;;;;;;20.90;90.60;;;;;;4997587;28;19924;-62
2022/10/02 10:19:31;;;;;;;;;;;21.20;90.70;;;;;;5056944;28;19936;-62
2022/10/02 10:22:18;;;;;;;;;;;20.80;91.00;;;;;;5072738;28;20333;-63
2022/10/02 10:24:43;;;;;;;;;;;20.70;90.60;;;;;;5053502;28;20368;-62
2022/10/02 10:27:09;;;;;;;;;;;20.90;91.10;;;;;;5070117;28;20021;-62
2022/10/02 10:29:54;;;;;;;;;;;20.90;91.00;;;;;;5065433;28;19924;-62
2022/10/02 10:32:26;;;;;;;;;;;20.80;91.00;;;;;;5070012;28;20345;-63
2022/10/02 10:34:57;;;;;;;;;;;21.20;91.10;;;;;;5061704;28;19925;-62
2022/10/02 10:40:34;;;;;;;;;;;21.10;90.60;;;;;;5069887;28;20019;-62
2022/10/02 10:43:03;;;;;;;;;;;;;;;;;;5056893;28;19935;-63
2022/10/02 10:45:44;;;;;;;;;;;21.40;90.40;;;;;;5062229;28;19971;-62
2022/10/02 10:48:23;;;;;;;;;;;21.40;91.00;;;;;;5068792;28;19924;-63
2022/10/02 10:51:01;;;;;;;;;;;21.50;90.60;;;;;;5072117;28;19924;-63
2022/10/02 10:53:30;;;;;;;;;;;21.30;90.50;;;;;;5062843;28;19924;-62
2022/10/02 10:55:56;;;;;;;;;;;21.50;90.80;;;;;;5059682;28;19925;-63
2022/10/02 10:58:24;;;;;;;;;;;21.60;90.90;;;;;;5054298;28;19925;-62
2022/10/02 11:00:50;;;;;;;;;;;21.50;90.30;;;;;;5064507;28;19932;-62
2022/10/02 11:03:41;;;;;;;;;;;21.50;90.60;;;;;;5066189;28;19924;-62
2022/10/02 11:06:25;;;;;;;;;;;21.60;90.20;;;;;;5063599;28;20382;-62
2022/10/02 11:09:09;;;;;;;;;;;21.60;90.10;;;;;;5071817;28;19924;-63
2022/10/02 11:11:40;;;;;;;;;;;21.40;90.10;;;;;;5067613;28;19929;-62
2022/10/02 11:14:19;;;;;;;;;;;21.40;90.20;;;;;;5064865;28;19925;-62
2022/10/02 11:17:03;;;;;;;;;;;21.40;90.20;;;;;;5051040;28;20016;-62
2022/10/02 11:19:48;;;;;;;;;;;21.50;90.30;;;;;;5074770;28;20287;-62
2022/10/02 11:22:32;;;;;;;;;;;21.10;90.20;;;;;;5062638;28;20287;-62
2022/10/02 11:25:08;;;;;;;;;;;21.40;90.30;;;;;;5069751;28;19924;-62
2022/10/02 11:27:40;;;;;;;;;;;21.40;90.30;;;;;;5068275;28;20408;-63
2022/10/02 11:30:11;;;;;;;;;;;21.60;90.30;;;;;;5061675;28;19925;-62
2022/10/02 11:32:50;;;;;;;;;;;21.40;90.20;;;;;;5066315;28;20015;-63
2022/10/02 11:35:18;;;;;;;;;;;21.50;90.50;;;;;;5041895;28;19932;-63
2022/10/02 11:38:02;;;;;;;;;;;21.50;90.60;;;;;;5065404;28;19986;-64
2022/10/02 11:40:31;;;;;;;;;;;21.50;90.00;;;;;;5064204;28;19931;-64
2022/10/02 11:43:16;;;;;;;;;;;21.80;90.00;;;;;;5064514;28;19929;-63
2022/10/02 11:45:45;;;;;;;;;;;21.80;89.80;;;;;;5074850;28;19936;-62
2022/10/02 11:48:17;;;;;;;;;;;22.00;90.60;;;;;;5075999;28;19924;-62
2022/10/02 11:50:52;;;;;;;;;;;21.60;89.70;;;;;;5075567;28;19974;-63
2022/10/02 11:53:33;;;;;;;;;;;21.60;89.70;;;;;;5077013;28;19932;-62
2022/10/02 11:55:59;;;;;;;;;;;21.80;89.40;;;;;;5067624;28;19925;-62
2022/10/02 11:58:36;;;;;;;;;;;21.80;90.30;;;;;;5065873;28;19931;-62
2022/10/02 12:01:21;;;;;;;;;;;21.90;89.60;;;;;;5065557;28;20011;-62
2022/10/02 12:03:56;;;;;;;;;;;22.00;90.10;;;;;;5064765;28;20334;-62
2022/10/02 12:06:43;;;;;;;;;;;22.30;89.60;;;;;;5071447;28;20385;-62
2022/10/02 12:09:27;;;;;;;;;;;22.00;90.10;;;;;;5008140;28;19973;-62
2022/10/02 12:12:11;;;;;;;;;;;22.00;89.30;;;;;;5013072;28;19931;-63
2022/10/02 12:14:38;;;;;;;;;;;22.10;89.20;;;;;;5005287;28;20008;-63
2022/10/02 12:17:15;;;;;;;;;;;22.10;89.50;;;;;;5010285;28;20427;-63
2022/10/02 12:29:01;;;;;;;;;;;22.50;88.40;;;;;;4925457;29;19926;-63
2022/10/02 12:31:30;;;;;;;;;;;22.50;88.20;;;;;;4939016;29;19927;-62
2022/10/02 12:34:00;;;;;;;;;;;22.20;89.10;;;;;;4954251;29;19926;-63
2022/10/02 12:36:44;;;;;;;;;;;22.20;88.10;;;;;;4937986;29;19926;-63
2022/10/02 12:39:16;;;;;;;;;;;22.40;88.20;;;;;;4953184;29;20017;-64
2022/10/02 12:41:44;;;;;;;;;;;22.10;88.90;;;;;;4954740;29;19934;-63
2022/10/02 12:44:10;;;;;;;;;;;22.00;88.00;;;;;;4954404;29;19969;-63
2022/10/02 12:46:50;;;;;;;;;;;22.30;88.90;;;;;;4956128;28;19968;-63
2022/10/02 12:49:34;;;;;;;;;;;22.40;88.20;;;;;;4985018;28;20379;-63
2022/10/02 12:52:21;;;;;;;;;;;22.00;88.00;;;;;;4986346;28;19984;-62
2022/10/02 12:54:50;;;;;;;;;;;22.20;88.00;;;;;;5062148;28;19925;-63
2022/10/02 13:00:13;;;;;;;;;;;22.10;88.00;;;;;;5070226;28;19924;-62
2022/10/02 13:02:51;;;;;;;;;;;22.40;88.00;;;;;;5040206;28;20007;-63
2022/10/02 13:05:17;;;;;;;;;;;22.30;87.90;;;;;;5074387;28;19932;-62
2022/10/02 13:07:48;;;;;;;;;;;22.00;88.40;;;;;;5066224;28;19932;-63
2022/10/02 13:10:14;;;;;;;;;;;22.30;88.90;;;;;;5065964;28;19932;-62
2022/10/02 13:12:58;;;;;;;;;;;22.30;88.90;;;;;;5072987;28;20382;-62
2022/10/02 13:15:34;;;;;;;;;;;22.10;87.80;;;;;;5059912;28;20382;-62
2022/10/02 13:18:42;;;;;;;;;;;22.20;87.80;;;;;;5062267;28;19936;-62
2022/10/02 13:21:19;;;;;;;;;;;22.10;87.80;;;;;;4992146;28;19933;-63
2022/10/02 13:23:51;;;;;;;;;;;22.30;89.10;;;;;;4976303;28;19980;-62
2022/10/02 13:26:22;;;;;;;;;;;22.30;87.80;;;;;;4993023;28;19964;-62
2022/10/02 13:28:51;;;;;;;;;;;22.40;88.80;;;;;;4975606;28;19933;-62
2022/10/02 13:31:17;;;;;;;;;;;22.30;87.80;;;;;;4992817;28;19926;-63
2022/10/02 13:33:45;;;;;;;;;;;22.20;88.60;;;;;;4992570;28;19926;-62
2022/10/02 13:36:17;;;;;;;;;;;22.00;87.70;;;;;;4992033;28;19933;-62
2022/10/02 13:38:57;;;;;;;;;;;22.10;87.70;;;;;;4973189;28;19926;-64
2022/10/02 13:41:29;;;;;;;;;;;22.10;87.90;;;;;;4976462;28;19980;-63
2022/10/02 13:44:01;;;;;;;;;;;21.90;88.00;;;;;;4992501;28;19926;-63
2022/10/02 13:46:45;;;;;;;;;;;21.70;88.10;;;;;;4992202;28;19930;-62
2022/10/02 13:49:16;;;;;;;;;;;21.60;88.20;;;;;;4992087;28;19949;-62
2022/10/02 13:51:57;;;;;;;;;;;21.80;88.40;;;;;;4986208;28;19922;-62
2022/10/02 13:54:42;;;;;;;;;;;21.70;88.50;;;;;;5008221;28;19971;-63
2022/10/02 13:57:12;;;;;;;;;;;21.70;88.50;;;;;;5062320;28;20340;-63
2022/10/02 13:59:56;;;;;;;;;;;21.90;89.90;;;;;;5047780;28;19932;-63
2022/10/02 14:02:38;;;;;;;;;;;21.80;88.70;;;;;;5064777;28;19925;-62
2022/10/02 14:05:05;;;;;;;;;;;21.60;88.60;;;;;;5061363;28;20003;-63
2022/10/02 14:07:49;;;;;;;;;;;21.70;90.00;;;;;;5061749;28;19947;-66
2022/10/02 14:10:21;;;;;;;;;;;21.50;88.90;;;;;;5062510;28;20345;-62
2022/10/02 14:12:49;;;;;;;;;;;21.70;89.10;;;;;;5071192;28;19925;-62
2022/10/02 14:15:22;;;;;;;;;;;21.40;90.10;;;;;;5071612;28;19971;-68
2022/10/02 14:17:57;;;;;;;;;;;21.60;89.20;;;;;;5071601;28;19925;-62
2022/10/02 14:20:30;;;;;;;;;;;21.80;89.30;;;;;;5067237;28;19925;-62
2022/10/02 14:23:29;;;;;;;;;;;21.40;89.20;;;;;;5036538;28;19999;-62
2022/10/02 14:25:54;;;;;;;;;;;21.20;89.10;;;;;;4991532;28;19926;-63
2022/10/02 14:28:20;;;;;;;;;;;21.60;90.20;;;;;;4975555;28;19925;-62
2022/10/02 14:30:48;;;;;;;;;;;21.40;90.20;;;;;;4991783;28;19926;-64
2022/10/02 14:33:15;;;;;;;;;;;21.60;89.60;;;;;;4991493;28;19932;-62
2022/10/02 14:35:51;;;;;;;;;;;21.50;90.30;;;;;;4991164;28;19987;-62
2022/10/02 14:38:22;;;;;;;;;;;21.30;89.60;;;;;;4991406;28;20052;-66
2022/10/02 14:40:58;;;;;;;;;;;21.40;89.70;;;;;;4991796;28;19926;-64
2022/10/02 14:43:39;;;;;;;;;;;21.30;90.30;;;;;;4991497;28;19965;-62
2022/10/02 14:46:05;;;;;;;;;;;;;;;;;;4975409;28;20386;-63
2022/10/02 14:48:43;;;;;;;;;;;21.20;89.20;;;;;;4975713;28;19928;-62
2022/10/02 14:51:15;;;;;;;;;;;21.40;90.00;;;;;;4991300;28;19930;-62
2022/10/02 14:53:46;;;;;;;;;;;21.50;90.00;;;;;;4975310;28;20029;-62
2022/10/02 14:56:21;;;;;;;;;;;21.40;90.00;;;;;;4991332;28;20287;-63
2022/10/02 14:58:56;;;;;;;;;;;21.30;90.00;;;;;;4991461;28;19984;-63
2022/10/02 15:01:22;;;;;;;;;;;21.20;90.40;;;;;;5019366;28;19991;-63
2022/10/02 15:03:54;;;;;;;;;;;21.20;90.60;;;;;;5072793;28;19978;-62
2022/10/02 15:06:22;;;;;;;;;;;21.20;90.00;;;;;;5072916;28;19928;-62
2022/10/02 15:08:55;;;;;;;;;;;21.30;90.70;;;;;;5068335;28;19933;-62
2022/10/02 15:11:40;;;;;;;;;;;21.20;90.40;;;;;;5044125;28;19932;-62